Time;durP1;ratioP1;P1;durP2;ratioP2;P2;SDS_P1;SDS_P2;PMS_P1;PMS_P2;Temp;Humidity;BMP_temperature;BMP_pressure;BME280_temperature;BME280_humidity;BME280_pressure;Samples;Min_cycle;Max_cycle;Signal;HPM_P1;HPM_P2
2023/06/28 00:00:28;;;;;;;12.18;5.93;;;13.60;99.90;;;;;;4988646;28;20038;-48
2023/06/28 00:02:55;;;;;;;7.70;4.72;;;13.60;99.90;;;;;;4988089;28;20607;-48
2023/06/28 00:05:21;;;;;;;7.95;5.43;;;13.50;99.90;;;;;;4988955;28;20109;-47
2023/06/28 00:07:47;;;;;;;9.57;5.38;;;13.60;99.90;;;;;;4988052;28;20102;-49
2023/06/28 00:10:12;;;;;;;8.65;4.88;;;13.50;99.90;;;;;;4988743;28;20034;-49
2023/06/28 00:12:38;;;;;;;10.13;5.05;;;13.50;99.90;;;;;;4988592;28;20063;-47
2023/06/28 00:15:04;;;;;;;10.20;5.30;;;13.50;99.90;;;;;;4988748;28;20062;-50
2023/06/28 00:17:29;;;;;;;11.00;5.43;;;13.50;99.90;;;;;;4987769;28;20033;-50
2023/06/28 00:20:11;;;;;;;9.68;5.57;;;13.50;99.90;;;;;;4988619;28;20391;-47
2023/06/28 00:22:39;;;;;;;11.48;5.47;;;13.50;99.90;;;;;;4988620;28;20391;-47
2023/06/28 00:25:05;;;;;;;11.05;5.70;;;13.50;99.90;;;;;;4988105;28;20106;-48
2023/06/28 00:27:31;;;;;;;5.55;4.45;;;13.50;99.90;;;;;;4987779;28;20072;-51
2023/06/28 00:29:57;;;;;;;10.65;5.90;;;13.40;99.90;;;;;;4988093;28;20491;-47
2023/06/28 00:32:26;;;;;;;11.60;5.78;;;13.40;99.90;;;;;;4988312;28;20037;-48
2023/06/28 00:34:52;;;;;;;8.10;4.82;;;13.40;99.90;;;;;;4988116;28;20034;-48
2023/06/28 00:37:17;;;;;;;7.85;4.70;;;13.40;99.90;;;;;;4987996;28;20018;-48
2023/06/28 00:39:43;;;;;;;14.10;4.80;;;13.40;99.90;;;;;;4988081;28;20015;-48
2023/06/28 00:42:10;;;;;;;10.98;5.05;;;13.40;99.90;;;;;;4988279;28;20463;-47
2023/06/28 00:44:36;;;;;;;11.07;4.97;;;13.40;99.90;;;;;;4988021;28;20056;-49
2023/06/28 00:47:03;;;;;;;7.53;5.05;;;13.40;99.90;;;;;;4987336;28;20026;-49
2023/06/28 00:49:32;;;;;;;10.35;4.95;;;13.30;99.90;;;;;;4970583;28;20019;-47
2023/06/28 00:52:00;;;;;;;10.27;4.97;;;13.40;99.90;;;;;;4988005;28;20439;-49
2023/06/28 00:54:25;;;;;;;9.80;4.40;;;13.40;99.90;;;;;;4988086;28;20413;-47
2023/06/28 00:56:52;;;;;;;8.60;5.05;;;13.30;99.90;;;;;;4990051;28;20042;-48
2023/06/28 00:59:18;;;;;;;10.93;5.15;;;13.30;99.90;;;;;;5054444;28;20387;-47
2023/06/28 01:01:44;;;;;;;8.45;4.65;;;13.30;99.90;;;;;;5054587;28;20483;-47
2023/06/28 01:04:13;;;;;;;7.97;4.47;;;13.30;99.90;;;;;;4987456;28;20034;-49
2023/06/28 01:06:41;;;;;;;15.57;5.22;;;13.30;99.90;;;;;;4987153;28;20033;-47
2023/06/28 01:09:08;;;;;;;10.20;4.63;;;13.20;99.90;;;;;;4984440;28;20030;-48
2023/06/28 01:11:35;;;;;;;9.45;4.78;;;13.20;99.90;;;;;;4969986;28;20499;-48
2023/06/28 01:14:01;;;;;;;9.48;4.90;;;13.20;99.90;;;;;;4987306;28;20045;-48
2023/06/28 01:16:27;;;;;;;9.63;4.50;;;13.20;99.90;;;;;;4986961;28;20091;-47
2023/06/28 01:18:53;;;;;;;7.78;4.22;;;13.20;99.90;;;;;;4987081;28;20034;-51
2023/06/28 01:21:20;;;;;;;7.70;4.20;;;13.10;99.90;;;;;;4987436;28;20037;-49
2023/06/28 01:23:46;;;;;;;6.65;3.63;;;13.10;99.90;;;;;;4987433;28;20560;-49
2023/06/28 01:26:12;;;;;;;12.32;4.63;;;13.20;99.90;;;;;;4969196;28;20125;-48
2023/06/28 01:28:38;;;;;;;11.38;4.43;;;13.10;99.90;;;;;;4987292;28;20399;-48
2023/06/28 01:31:06;;;;;;;6.82;3.65;;;13.00;99.90;;;;;;4969629;28;20358;-48
2023/06/28 01:33:31;;;;;;;8.80;3.97;;;13.00;99.90;;;;;;4969638;28;20083;-48
2023/06/28 01:35:57;;;;;;;6.03;3.65;;;13.00;99.90;;;;;;4986916;28;20026;-47
2023/06/28 01:38:25;;;;;;;7.68;4.00;;;13.00;99.90;;;;;;4986833;28;20089;-47
2023/06/28 01:40:51;;;;;;;9.13;4.10;;;13.00;99.90;;;;;;4987142;28;20031;-49
2023/06/28 01:43:17;;;;;;;7.63;3.78;;;12.90;99.90;;;;;;4987202;28;20038;-50
2023/06/28 01:45:43;;;;;;;8.98;3.97;;;12.90;99.90;;;;;;4987241;28;20030;-47
2023/06/28 01:48:08;;;;;;;9.77;4.10;;;12.90;99.90;;;;;;4986983;28;20195;-51
2023/06/28 01:50:34;;;;;;;8.07;3.42;;;12.90;99.90;;;;;;4986770;28;20064;-50
2023/06/28 01:53:02;;;;;;;9.32;3.88;;;12.80;99.90;;;;;;4986987;28;20038;-47
2023/06/28 01:55:29;;;;;;;10.57;4.22;;;12.90;99.90;;;;;;4986895;28;20019;-49
2023/06/28 01:57:55;;;;;;;7.32;3.25;;;12.80;99.90;;;;;;4986859;28;20039;-50
2023/06/28 02:00:20;;;;;;;9.80;3.97;;;12.80;99.90;;;;;;4986991;28;20037;-50
2023/06/28 02:02:46;;;;;;;7.95;3.67;;;12.80;99.90;;;;;;4987236;28;20065;-50
2023/06/28 02:05:12;;;;;;;9.50;3.60;;;12.80;99.90;;;;;;4980116;28;20369;-50
2023/06/28 02:07:37;;;;;;;8.60;3.53;;;12.80;99.90;;;;;;4972439;28;20027;-49
2023/06/28 02:10:04;;;;;;;8.70;3.90;;;12.80;99.90;;;;;;4969265;28;20399;-50
2023/06/28 02:12:29;;;;;;;8.98;3.88;;;12.80;99.90;;;;;;4986774;28;20022;-48
2023/06/28 02:14:55;;;;;;;8.10;3.40;;;12.70;99.90;;;;;;4983886;28;20042;-49
2023/06/28 02:17:20;;;;;;;7.70;3.88;;;12.70;99.90;;;;;;4974833;28;20039;-47
2023/06/28 02:19:50;;;;;;;7.32;3.33;;;12.70;99.90;;;;;;4981048;28;20109;-50
2023/06/28 02:22:16;;;;;;;13.88;4.57;;;12.70;99.90;;;;;;4979908;28;20034;-49
2023/06/28 02:24:42;;;;;;;9.98;3.90;;;12.70;99.90;;;;;;4981145;28;20030;-48
2023/06/28 02:27:10;;;;;;;9.80;3.75;;;12.70;99.90;;;;;;4978861;28;20232;-51
2023/06/28 02:29:36;;;;;;;9.25;4.00;;;12.70;99.90;;;;;;4970759;28;20034;-47
2023/06/28 02:32:03;;;;;;;6.55;3.30;;;12.60;99.90;;;;;;4979026;28;20039;-48
2023/06/28 02:34:28;;;;;;;8.43;3.60;;;12.60;99.90;;;;;;4990103;28;20497;-48
2023/06/28 02:36:54;;;;;;;10.40;4.13;;;12.60;99.90;;;;;;4989750;28;20057;-46
2023/06/28 02:39:20;;;;;;;11.50;3.40;;;12.60;99.90;;;;;;4989582;28;20034;-48
2023/06/28 02:41:45;;;;;;;5.00;3.65;;;12.60;99.90;;;;;;4989889;28;20208;-47
2023/06/28 02:44:11;;;;;;;6.88;3.92;;;12.60;99.90;;;;;;4989761;28;20031;-48
2023/06/28 02:46:36;;;;;;;10.38;4.78;;;12.60;99.90;;;;;;4983246;28;20027;-48
2023/06/28 02:49:02;;;;;;;22.13;4.95;;;12.60;99.90;;;;;;4978658;28;20042;-47
2023/06/28 02:51:27;;;;;;;11.98;4.55;;;12.60;99.90;;;;;;4989006;28;20428;-47
2023/06/28 02:53:53;;;;;;;9.15;4.20;;;12.50;99.90;;;;;;4978795;28;20479;-47
2023/06/28 02:56:18;;;;;;;11.65;4.03;;;12.50;99.90;;;;;;4988004;28;20038;-47
2023/06/28 02:58:44;;;;;;;10.18;4.95;;;12.50;99.90;;;;;;4989644;28;20458;-48
2023/06/28 03:01:09;;;;;;;8.40;4.55;;;12.50;99.90;;;;;;4989511;28;20034;-47
2023/06/28 03:03:36;;;;;;;15.38;4.45;;;12.50;99.90;;;;;;4989698;28;20019;-48
2023/06/28 03:06:02;;;;;;;6.65;3.85;;;12.50;99.90;;;;;;4978312;28;20062;-47
2023/06/28 03:08:27;;;;;;;7.28;3.78;;;12.50;99.90;;;;;;4978741;28;20050;-47
2023/06/28 03:10:53;;;;;;;8.68;4.45;;;12.50;99.90;;;;;;4976892;28;20077;-47
2023/06/28 03:13:18;;;;;;;13.63;4.95;;;12.40;99.90;;;;;;4989429;28;20111;-47
2023/06/28 03:15:44;;;;;;;9.05;4.60;;;12.40;99.90;;;;;;4971801;28;20034;-47
2023/06/28 03:18:09;;;;;;;9.45;4.72;;;12.40;99.90;;;;;;4989181;28;20026;-47
2023/06/28 03:20:35;;;;;;;13.63;5.10;;;12.40;99.90;;;;;;4989357;28;20470;-48
2023/06/28 03:23:03;;;;;;;12.10;4.45;;;12.40;99.90;;;;;;4989343;28;20037;-47
2023/06/28 03:25:28;;;;;;;10.98;4.45;;;12.40;99.90;;;;;;4971955;28;20027;-48
2023/06/28 03:27:54;;;;;;;13.52;4.53;;;12.40;99.90;;;;;;4988798;28;20037;-48
2023/06/28 03:30:19;;;;;;;18.33;5.60;;;12.40;99.90;;;;;;4989006;28;20042;-48
2023/06/28 03:32:45;;;;;;;12.70;5.63;;;12.40;99.90;;;;;;4988286;28;20062;-47
2023/06/28 03:35:10;;;;;;;6.93;4.70;;;12.40;99.90;;;;;;4988760;28;20030;-46
2023/06/28 03:37:36;;;;;;;7.78;4.78;;;12.40;99.90;;;;;;4988567;28;20030;-47
2023/06/28 03:40:02;;;;;;;11.40;5.20;;;12.40;99.90;;;;;;4971744;28;20066;-47
2023/06/28 03:42:27;;;;;;;9.90;4.95;;;12.40;99.90;;;;;;4989060;28;20035;-46
2023/06/28 03:44:53;;;;;;;15.38;5.70;;;12.50;99.90;;;;;;4971557;28;20488;-49
2023/06/28 03:47:19;;;;;;;13.55;5.38;;;12.50;99.90;;;;;;4988467;28;21561;-47
2023/06/28 03:49:45;;;;;;;13.10;5.72;;;12.50;99.90;;;;;;4989162;28;20043;-48
2023/06/28 03:52:11;;;;;;;20.17;5.97;;;12.50;99.90;;;;;;4988746;28;20052;-49
2023/06/28 03:54:36;;;;;;;12.45;5.05;;;12.60;99.90;;;;;;4971265;28;20030;-47
2023/06/28 03:57:02;;;;;;;11.38;4.80;;;12.60;99.90;;;;;;4988173;28;20058;-47
2023/06/28 03:59:28;;;;;;;14.25;5.63;;;12.60;99.90;;;;;;4989137;28;20046;-48
2023/06/28 04:01:53;;;;;;;8.40;5.60;;;12.70;99.90;;;;;;4988538;28;20044;-48
2023/06/28 04:04:19;;;;;;;11.07;6.05;;;12.70;99.90;;;;;;4988738;28;20080;-50
2023/06/28 04:06:45;;;;;;;11.02;5.85;;;12.80;99.90;;;;;;4988192;28;20411;-48
2023/06/28 04:09:10;;;;;;;15.70;6.03;;;12.90;99.90;;;;;;4988620;28;20031;-48
2023/06/28 04:11:36;;;;;;;11.25;5.82;;;12.90;99.90;;;;;;4988726;28;20379;-47
2023/06/28 04:14:01;;;;;;;12.38;5.50;;;13.00;99.90;;;;;;4988268;28;20083;-49
2023/06/28 04:16:27;;;;;;;11.70;6.20;;;13.00;99.90;;;;;;4987997;28;20270;-48
2023/06/28 04:18:52;;;;;;;15.30;5.93;;;13.00;99.90;;;;;;4988461;28;20030;-48
2023/06/28 04:21:18;;;;;;;18.90;6.72;;;13.00;99.90;;;;;;4988193;28;20154;-47
2023/06/28 04:23:44;;;;;;;17.55;6.00;;;13.10;99.90;;;;;;4971020;28;20037;-48
2023/06/28 04:26:10;;;;;;;9.52;4.85;;;13.20;99.90;;;;;;4988299;28;20030;-50
2023/06/28 04:28:35;;;;;;;10.90;5.35;;;13.20;99.90;;;;;;4987768;28;20452;-48
2023/06/28 04:31:01;;;;;;;24.05;6.88;;;13.20;99.90;;;;;;4988167;28;20041;-48
2023/06/28 04:33:29;;;;;;;10.07;5.63;;;13.30;99.90;;;;;;4988004;28;20041;-50
2023/06/28 04:35:56;;;;;;;13.20;6.35;;;13.30;99.90;;;;;;4987431;28;20537;-48
2023/06/28 04:38:22;;;;;;;8.93;5.15;;;13.30;99.90;;;;;;4984858;28;20035;-48
2023/06/28 04:40:48;;;;;;;11.13;5.32;;;13.40;99.90;;;;;;4978773;28;20092;-48
2023/06/28 04:43:14;;;;;;;16.95;5.22;;;13.40;99.90;;;;;;4976698;28;20027;-47
2023/06/28 04:45:40;;;;;;;10.65;6.20;;;13.40;99.90;;;;;;4977245;28;20022;-49
2023/06/28 04:48:07;;;;;;;9.20;5.30;;;13.50;99.90;;;;;;4977932;28;20372;-48
2023/06/28 04:50:34;;;;;;;12.15;5.68;;;13.60;99.90;;;;;;4982843;28;20559;-48
2023/06/28 04:53:00;;;;;;;12.43;5.78;;;13.60;99.90;;;;;;4987199;28;20053;-47
2023/06/28 04:55:30;;;;;;;17.10;7.20;;;13.60;99.90;;;;;;4987279;28;20060;-48
2023/06/28 04:57:55;;;;;;;15.77;6.45;;;13.70;99.90;;;;;;4987039;28;20211;-50
2023/06/28 05:00:21;;;;;;;16.42;6.22;;;13.70;99.90;;;;;;4987599;28;20023;-50
2023/06/28 05:02:50;;;;;;;22.45;6.90;;;13.80;99.90;;;;;;4970000;28;20023;-48
2023/06/28 05:05:15;;;;;;;16.25;6.50;;;13.80;99.90;;;;;;4987470;28;20023;-48
2023/06/28 05:07:41;;;;;;;14.88;6.32;;;13.90;99.90;;;;;;4987271;28;20387;-48
2023/06/28 05:10:06;;;;;;;11.35;5.38;;;13.90;99.90;;;;;;4987562;28;20088;-48
2023/06/28 05:12:32;;;;;;;20.02;6.53;;;13.90;99.90;;;;;;4996309;28;20042;-51
2023/06/28 05:14:57;;;;;;;10.75;6.53;;;14.00;99.90;;;;;;4989050;28;20030;-48
2023/06/28 05:17:23;;;;;;;18.20;7.40;;;14.00;99.90;;;;;;4986540;28;20038;-48
2023/06/28 05:19:48;;;;;;;14.00;6.40;;;14.10;99.90;;;;;;4987442;28;20026;-50
2023/06/28 05:22:14;;;;;;;15.13;6.63;;;14.10;99.90;;;;;;4987169;28;20376;-50
2023/06/28 05:24:39;;;;;;;17.70;6.35;;;14.10;99.90;;;;;;4984317;28;20083;-48
2023/06/28 05:27:05;;;;;;;17.90;7.25;;;14.20;99.90;;;;;;4986483;28;20445;-49
2023/06/28 05:29:30;;;;;;;18.05;6.15;;;14.20;99.90;;;;;;4987642;28;20041;-49
2023/06/28 05:31:56;;;;;;;10.73;5.63;;;14.20;99.90;;;;;;4987549;28;20023;-47
2023/06/28 05:34:21;;;;;;;9.77;6.38;;;14.30;99.90;;;;;;4952944;28;20484;-48
2023/06/28 05:36:47;;;;;;;9.13;5.10;;;14.30;99.90;;;;;;4973818;28;20023;-51
2023/06/28 05:39:12;;;;;;;17.95;5.63;;;14.30;99.90;;;;;;4956767;28;20479;-47
2023/06/28 05:41:40;;;;;;;12.60;5.60;;;14.40;99.90;;;;;;4984086;28;20035;-48
2023/06/28 05:44:05;;;;;;;14.50;5.30;;;14.50;99.90;;;;;;4993805;28;20396;-49
2023/06/28 05:46:31;;;;;;;11.88;6.20;;;14.50;99.90;;;;;;5005561;28;20039;-49
2023/06/28 05:48:58;;;;;;;24.02;5.97;;;14.60;99.90;;;;;;4982810;28;20088;-49
2023/06/28 05:51:24;;;;;;;11.43;5.22;;;14.60;99.90;;;;;;4981094;28;20058;-48
2023/06/28 05:53:49;;;;;;;18.17;6.13;;;14.60;99.90;;;;;;4977073;28;20046;-50
2023/06/28 05:56:15;;;;;;;9.00;5.22;;;14.70;99.90;;;;;;4984318;28;20042;-48
2023/06/28 05:58:40;;;;;;;14.70;5.05;;;14.80;99.90;;;;;;4987860;28;20025;-47
2023/06/28 06:01:06;;;;;;;20.50;6.18;;;14.90;99.90;;;;;;4988974;28;20336;-49
2023/06/28 06:03:32;;;;;;;12.88;5.43;;;14.90;99.90;;;;;;4989936;28;20049;-48
2023/06/28 06:05:57;;;;;;;8.93;5.07;;;15.00;99.90;;;;;;5004613;28;20396;-48
2023/06/28 06:08:23;;;;;;;12.20;5.18;;;15.00;99.90;;;;;;4971655;28;20030;-48
2023/06/28 06:10:49;;;;;;;12.52;4.82;;;15.10;99.90;;;;;;4982720;28;20026;-49
2023/06/28 06:13:14;;;;;;;7.43;4.32;;;15.20;99.90;;;;;;5006113;28;20102;-51
2023/06/28 06:15:40;;;;;;;12.63;4.63;;;15.30;99.90;;;;;;4988184;28;20027;-49
2023/06/28 06:18:05;;;;;;;13.43;4.60;;;15.40;99.90;;;;;;4970254;28;20022;-48
2023/06/28 06:20:33;;;;;;;11.23;4.88;;;15.40;99.90;;;;;;4989171;28;20153;-51
2023/06/28 06:22:59;;;;;;;13.35;4.50;;;15.50;99.90;;;;;;4979670;28;20010;-48
2023/06/28 06:25:24;;;;;;;9.07;4.13;;;15.50;99.90;;;;;;4983191;28;20050;-47
2023/06/28 06:27:50;;;;;;;15.65;4.60;;;15.60;99.90;;;;;;4981331;28;20067;-50
2023/06/28 06:30:15;;;;;;;9.90;3.85;;;15.60;99.90;;;;;;4989948;28;20497;-48
2023/06/28 06:32:41;;;;;;;11.77;5.10;;;15.70;99.90;;;;;;4991568;28;20068;-47
2023/06/28 06:35:07;;;;;;;11.23;3.47;;;15.80;99.90;;;;;;4989900;28;20027;-49
2023/06/28 06:37:33;;;;;;;9.80;3.78;;;15.90;99.90;;;;;;4971821;28;20562;-49
2023/06/28 06:39:58;;;;;;;8.05;3.20;;;15.90;99.90;;;;;;4971757;28;20043;-48
2023/06/28 06:42:24;;;;;;;10.52;4.38;;;16.10;99.90;;;;;;4988484;28;20030;-50
2023/06/28 06:44:49;;;;;;;14.43;4.35;;;16.20;99.90;;;;;;4987828;28;20029;-51
2023/06/28 06:47:15;;;;;;;12.80;4.80;;;16.40;99.90;;;;;;4987573;28;20030;-50
2023/06/28 06:49:40;;;;;;;10.38;4.03;;;16.50;99.90;;;;;;4988072;28;20065;-49
2023/06/28 06:52:06;;;;;;;14.57;4.43;;;16.60;99.90;;;;;;4970661;28;20034;-48
2023/06/28 06:54:31;;;;;;;19.30;4.35;;;16.70;99.90;;;;;;4988165;28;20027;-51
2023/06/28 06:57:02;;;;;;;7.70;3.60;;;16.80;99.90;;;;;;4987787;28;20030;-49
2023/06/28 06:59:27;;;;;;;12.05;2.88;;;16.80;99.90;;;;;;4989462;28;20019;-50
2023/06/28 07:01:53;;;;;;;12.73;4.07;;;16.80;99.90;;;;;;4978370;28;20045;-50
2023/06/28 07:04:21;;;;;;;10.60;3.17;;;16.80;99.90;;;;;;4980262;28;20019;-49
2023/06/28 07:06:47;;;;;;;9.10;3.15;;;16.80;99.90;;;;;;4971441;28;20480;-50
2023/06/28 07:09:14;;;;;;;14.85;3.92;;;16.90;99.90;;;;;;5000067;28;20030;-49
2023/06/28 07:11:40;;;;;;;5.80;3.28;;;16.80;99.90;;;;;;4989228;28;20033;-48
2023/06/28 07:14:05;;;;;;;15.75;3.45;;;16.90;99.90;;;;;;4989484;28;20026;-48
2023/06/28 07:16:31;;;;;;;7.97;3.15;;;16.90;99.90;;;;;;4989098;28;20023;-50
2023/06/28 07:18:56;;;;;;;9.38;3.42;;;17.00;99.90;;;;;;4989512;28;20037;-48
2023/06/28 07:21:22;;;;;;;9.25;2.95;;;17.00;99.90;;;;;;4971826;28;20039;-46
2023/06/28 07:23:48;;;;;;;9.55;4.13;;;17.00;99.90;;;;;;4989341;28;20034;-49
2023/06/28 07:26:17;;;;;;;9.82;3.45;;;17.10;99.90;;;;;;4988718;28;20042;-48
2023/06/28 07:28:43;;;;;;;8.77;2.83;;;17.20;99.90;;;;;;4988823;28;20031;-48
2023/06/28 07:31:09;;;;;;;11.25;2.92;;;17.20;99.90;;;;;;4971361;28;20080;-50
2023/06/28 07:33:34;;;;;;;6.97;3.15;;;17.30;99.90;;;;;;4989554;28;20051;-49
2023/06/28 07:36:00;;;;;;;11.25;2.78;;;17.40;99.90;;;;;;4988571;28;20526;-49
2023/06/28 07:38:26;;;;;;;9.68;2.53;;;17.50;99.90;;;;;;4988594;28;20041;-48
2023/06/28 07:40:53;;;;;;;10.13;3.17;;;17.60;99.90;;;;;;4989229;28;20022;-48
2023/06/28 07:43:19;;;;;;;7.80;2.58;;;17.70;99.90;;;;;;4988935;28;20034;-48
2023/06/28 07:45:45;;;;;;;10.80;2.67;;;17.80;99.90;;;;;;4988940;28;20061;-50
2023/06/28 07:48:11;;;;;;;11.50;2.95;;;18.00;99.90;;;;;;4955087;28;20023;-48
2023/06/28 07:50:36;;;;;;;6.47;2.28;;;18.20;99.90;;;;;;4971292;28;20061;-48
2023/06/28 07:53:02;;;;;;;12.60;2.20;;;18.30;99.90;;;;;;4988713;28;20051;-51
2023/06/28 07:55:28;;;;;;;7.20;2.28;;;18.50;99.90;;;;;;4988517;28;20110;-49
2023/06/28 07:57:57;;;;;;;9.27;2.75;;;18.70;99.90;;;;;;4969857;28;20129;-48
2023/06/28 08:00:24;;;;;;;4.55;2.13;;;18.90;99.90;;;;;;4976195;28;20023;-51
2023/06/28 08:02:49;;;;;;;4.55;1.90;;;19.10;99.90;;;;;;4988520;28;20398;-50
2023/06/28 08:05:15;;;;;;;10.18;2.75;;;19.30;99.90;;;;;;4970372;28;20027;-48
2023/06/28 08:07:41;;;;;;;6.28;2.50;;;19.40;99.90;;;;;;4970265;28;20031;-50
2023/06/28 08:10:07;;;;;;;6.35;2.03;;;19.60;99.90;;;;;;4988012;28;20035;-50
2023/06/28 08:12:32;;;;;;;6.72;3.00;;;19.90;99.90;;;;;;4986378;28;20110;-50
2023/06/28 08:14:58;;;;;;;8.65;2.67;;;20.30;99.90;;;;;;4987799;28;20034;-51
2023/06/28 08:17:23;;;;;;;3.97;1.50;;;21.10;99.90;;;;;;4970322;28;20014;-50
2023/06/28 08:19:49;;;;;;;5.10;2.20;;;22.30;99.80;;;;;;4987630;28;20030;-50
2023/06/28 08:22:15;;;;;;;4.40;1.80;;;23.50;96.50;;;;;;4987501;28;20109;-52
2023/06/28 08:24:40;;;;;;;9.88;1.80;;;24.50;94.50;;;;;;4988205;28;20105;-51
2023/06/28 08:27:06;;;;;;;7.10;1.98;;;25.50;91.80;;;;;;4987732;28;20038;-52
2023/06/28 08:29:32;;;;;;;4.88;1.90;;;26.20;91.00;;;;;;5058836;28;20093;-51
2023/06/28 08:31:57;;;;;;;8.77;1.60;;;26.60;86.10;;;;;;5090578;28;20542;-51
2023/06/28 08:34:23;;;;;;;6.22;1.80;;;27.10;82.90;;;;;;5051152;28;20026;-50
2023/06/28 08:36:48;;;;;;;8.25;1.45;;;27.50;79.00;;;;;;4989111;28;20027;-49
2023/06/28 08:39:14;;;;;;;6.68;1.77;;;27.90;76.10;;;;;;4988096;28;20034;-50
2023/06/28 08:41:40;;;;;;;9.73;1.80;;;28.10;73.10;;;;;;4970346;28;20027;-51
2023/06/28 08:44:11;;;;;;;5.10;2.03;;;28.30;72.60;;;;;;4987518;28;20572;-50
2023/06/28 08:46:39;;;;;;;3.70;1.67;;;28.70;70.40;;;;;;4987005;28;20034;-51
2023/06/28 08:49:05;;;;;;;4.85;1.83;;;29.10;69.80;;;;;;4986563;28;20046;-50
2023/06/28 08:51:32;;;;;;;4.90;1.65;;;29.10;68.60;;;;;;4987259;28;20049;-51
2023/06/28 08:53:58;;;;;;;4.80;1.85;;;29.50;66.30;;;;;;4983574;28;20041;-52
2023/06/28 08:56:26;;;;;;;6.93;1.58;;;29.60;65.20;;;;;;4985741;28;20026;-50
2023/06/28 08:58:53;;;;;;;3.72;1.77;;;29.80;66.10;;;;;;4980877;28;20055;-51
2023/06/28 09:01:22;;;;;;;6.20;1.80;;;30.30;66.00;;;;;;4983832;28;20063;-51
2023/06/28 09:03:48;;;;;;;4.05;1.58;;;30.70;64.40;;;;;;4976828;28;20529;-51
2023/06/28 09:06:14;;;;;;;3.03;1.30;;;31.00;61.80;;;;;;4987152;28;20083;-51
2023/06/28 09:08:41;;;;;;;4.47;1.58;;;31.40;60.90;;;;;;4980153;28;20375;-52
2023/06/28 09:11:07;;;;;;;4.35;1.40;;;31.80;59.50;;;;;;4987397;28;20569;-52
2023/06/28 09:13:33;;;;;;;4.10;1.83;;;31.90;59.40;;;;;;5005952;28;20035;-51
2023/06/28 09:15:58;;;;;;;5.03;1.92;;;31.90;59.40;;;;;;4984680;28;20038;-52
2023/06/28 09:18:24;;;;;;;4.43;1.70;;;32.70;57.50;;;;;;4987370;28;20030;-51
2023/06/28 09:20:52;;;;;;;7.32;1.60;;;31.80;58.70;;;;;;4980682;28;20015;-51
2023/06/28 09:23:28;;;;;;;5.60;1.70;;;30.30;58.60;;;;;;4972306;28;20033;-51
2023/06/28 09:25:55;;;;;;;5.57;2.03;;;30.30;62.20;;;;;;4977525;28;20269;-51
2023/06/28 09:28:32;;;;;;;4.57;1.67;;;30.80;60.30;;;;;;4986019;28;20042;-51
2023/06/28 09:30:58;;;;;;;4.30;1.65;;;31.70;59.10;;;;;;5010843;28;20449;-51
2023/06/28 09:33:24;;;;;;;3.83;1.23;;;32.50;59.80;;;;;;4987063;28;20065;-51
2023/06/28 09:35:55;;;;;;;4.90;1.80;;;32.10;58.10;;;;;;4987046;28;20084;-51
2023/06/28 09:38:21;;;;;;;5.20;1.52;;;31.80;57.50;;;;;;4986453;28;20083;-51
2023/06/28 09:40:56;;;;;;;3.30;1.65;;;30.80;58.00;;;;;;4986772;28;20022;-51
2023/06/28 09:43:23;;;;;;;6.18;1.70;;;29.70;61.00;;;;;;4969654;28;20031;-50
2023/06/28 09:45:48;;;;;;;3.55;1.45;;;29.30;62.20;;;;;;4986708;28;20026;-51
2023/06/28 09:48:14;;;;;;;4.25;1.42;;;29.90;60.30;;;;;;4986815;28;20038;-51
2023/06/28 09:50:42;;;;;;;5.38;1.38;;;30.60;59.10;;;;;;4985975;28;20066;-52
2023/06/28 09:53:10;;;;;;;4.95;1.75;;;31.70;60.80;;;;;;4984478;28;20491;-52
2023/06/28 09:55:40;;;;;;;5.57;1.60;;;32.30;58.00;;;;;;4985943;28;20038;-52
2023/06/28 09:58:12;;;;;;;2.83;1.63;;;31.40;58.80;;;;;;4985995;28;20030;-51
2023/06/28 10:00:39;;;;;;;4.85;1.92;;;30.30;59.80;;;;;;4968950;28;20034;-51
2023/06/28 10:03:07;;;;;;;4.20;1.38;;;29.10;61.20;;;;;;4986908;28;20058;-52
2023/06/28 10:05:35;;;;;;;7.68;1.80;;;29.80;62.10;;;;;;4985698;28;20034;-52
2023/06/28 10:08:06;;;;;;;4.97;1.60;;;30.70;60.30;;;;;;4984593;28;20030;-52
2023/06/28 10:10:34;;;;;;;3.53;1.33;;;31.50;59.30;;;;;;4985092;28;20031;-52
2023/06/28 10:13:06;;;;;;;6.43;1.73;;;32.10;57.30;;;;;;4985372;28;20068;-52
2023/06/28 10:15:43;;;;;;;4.90;1.52;;;32.60;56.60;;;;;;4967156;28;20052;-52
2023/06/28 10:18:09;;;;;;;3.83;1.45;;;32.50;55.40;;;;;;4984648;28;20319;-52
2023/06/28 10:20:37;;;;;;;3.65;1.33;;;32.70;56.10;;;;;;4968571;28;20034;-52
2023/06/28 10:23:05;;;;;;;3.23;1.70;;;32.70;54.70;;;;;;4984918;28;20025;-53
2023/06/28 10:25:31;;;;;;;3.67;1.50;;;33.20;54.90;;;;;;4983786;28;20030;-53
2023/06/28 10:27:58;;;;;;;4.40;1.30;;;33.60;54.40;;;;;;4985337;28;20079;-53
2023/06/28 10:30:24;;;;;;;5.18;1.50;;;33.70;55.20;;;;;;4986103;28;20091;-53
2023/06/28 10:32:52;;;;;;;5.82;1.60;;;32.50;53.20;;;;;;4986200;28;20530;-52
2023/06/28 10:35:18;;;;;;;4.47;1.60;;;30.80;55.50;;;;;;4986675;28;20068;-52
2023/06/28 10:37:44;;;;;;;3.53;1.83;;;29.90;59.70;;;;;;4985633;28;20479;-52
2023/06/28 10:40:10;;;;;;;5.80;1.90;;;30.30;60.00;;;;;;4969108;28;20034;-52
2023/06/28 10:42:40;;;;;;;6.90;1.38;;;30.50;58.50;;;;;;4988702;28;20491;-52
2023/06/28 10:45:08;;;;;;;4.25;1.50;;;31.50;57.70;;;;;;4989386;28;20046;-52
2023/06/28 10:47:34;;;;;;;4.28;1.55;;;32.60;56.10;;;;;;4974883;28;20168;-52
2023/06/28 10:50:09;;;;;;;5.40;1.70;;;32.90;55.50;;;;;;4972241;28;20027;-52
2023/06/28 10:52:43;;;;;;;5.07;1.50;;;31.40;55.80;;;;;;4989441;28;20031;-52
2023/06/28 10:55:11;;;;;;;3.33;1.60;;;30.20;57.50;;;;;;4988946;28;20167;-52
2023/06/28 10:57:38;;;;;;;4.28;1.60;;;29.30;59.50;;;;;;4985130;28;20019;-51
2023/06/28 11:00:09;;;;;;;5.32;2.00;;;30.20;59.40;;;;;;4989336;28;20022;-51
2023/06/28 11:02:59;;;;;;;3.28;1.80;;;30.70;58.50;;;;;;4988961;28;20040;-51
2023/06/28 11:05:38;;;;;;;5.00;1.83;;;30.10;58.30;;;;;;4970448;28;20015;-51
2023/06/28 11:08:08;;;;;;;6.07;2.10;;;29.10;58.10;;;;;;4987448;28;20038;-52
2023/06/28 11:10:48;;;;;;;4.13;1.73;;;29.60;58.20;;;;;;4988053;28;20023;-52
2023/06/28 11:13:30;;;;;;;4.03;1.70;;;30.50;58.70;;;;;;4987975;28;20038;-52
2023/06/28 11:16:11;;;;;;;5.05;1.88;;;31.60;57.10;;;;;;4985540;28;20050;-52
2023/06/28 11:18:37;;;;;;;4.03;1.90;;;32.10;55.40;;;;;;4988358;28;20079;-52
2023/06/28 11:21:04;;;;;;;5.47;1.90;;;32.20;54.80;;;;;;4989382;28;20380;-53
2023/06/28 11:23:34;;;;;;;4.57;1.52;;;32.40;57.20;;;;;;4989844;28;20087;-52
2023/06/28 11:26:02;;;;;;;4.78;1.67;;;32.80;53.50;;;;;;4989063;28;20063;-52
2023/06/28 11:28:30;;;;;;;4.97;1.58;;;32.70;55.10;;;;;;4988592;28;20383;-52
2023/06/28 11:31:10;;;;;;;5.15;1.75;;;32.30;55.20;;;;;;4988727;28;20065;-52
2023/06/28 11:33:36;;;;;;;5.03;1.67;;;32.30;56.30;;;;;;4987046;28;20104;-52
2023/06/28 11:36:02;;;;;;;4.95;1.98;;;31.30;55.90;;;;;;4989116;28;20065;-51
2023/06/28 11:38:28;;;;;;;5.10;1.98;;;31.40;56.00;;;;;;4988134;28;20081;-50
2023/06/28 11:40:53;;;;;;;4.57;1.50;;;32.00;54.80;;;;;;4988605;28;20502;-52
2023/06/28 11:43:20;;;;;;;3.30;1.92;;;32.30;54.70;;;;;;5026621;28;20315;-52
2023/06/28 11:45:48;;;;;;;3.72;1.52;;;32.40;53.70;;;;;;5028289;28;20110;-52
2023/06/28 11:48:14;;;;;;;5.07;1.48;;;32.50;54.30;;;;;;4988323;28;20423;-52
2023/06/28 11:50:40;;;;;;;3.83;1.40;;;32.40;53.30;;;;;;4988546;28;20121;-53
2023/06/28 11:53:05;;;;;;;3.78;1.98;;;32.60;54.20;;;;;;4987584;28;20039;-52
2023/06/28 11:55:31;;;;;;;4.53;1.60;;;32.50;57.00;;;;;;4984820;28;20047;-53
2023/06/28 11:57:57;;;;;;;3.83;1.48;;;32.40;54.40;;;;;;4970569;28;20105;-52
2023/06/28 12:00:22;;;;;;;3.65;1.80;;;32.70;53.80;;;;;;4988498;28;20033;-53
2023/06/28 12:02:49;;;;;;;4.57;1.73;;;32.20;55.20;;;;;;4988473;28;20033;-52
2023/06/28 12:05:19;;;;;;;3.10;2.35;;;31.20;53.30;;;;;;4987848;28;20030;-52
2023/06/28 12:07:46;;;;;;;2.63;1.65;;;29.50;55.10;;;;;;4987790;28;20418;-51
2023/06/28 12:10:12;;;;;;;4.88;3.17;;;28.70;57.30;;;;;;4988074;28;20027;-51
2023/06/28 12:12:41;;;;;;;4.13;2.00;;;29.00;58.40;;;;;;4970617;28;20117;-51
2023/06/28 12:15:11;;;;;;;7.30;2.00;;;29.10;57.50;;;;;;4988181;28;20035;-51
2023/06/28 12:17:46;;;;;;;4.68;1.58;;;29.10;58.70;;;;;;5005687;28;20479;-51
2023/06/28 12:20:12;;;;;;;6.40;2.65;;;28.80;58.20;;;;;;4976989;28;20033;-52
2023/06/28 12:22:43;;;;;;;5.43;2.25;;;28.90;58.20;;;;;;4987364;28;20379;-50
2023/06/28 12:25:08;;;;;;;8.73;1.92;;;29.00;59.60;;;;;;4984732;28;20360;-48
2023/06/28 12:27:34;;;;;;;4.53;1.77;;;28.70;59.50;;;;;;4968261;28;20023;-50
2023/06/28 12:30:15;;;;;;;4.82;1.83;;;28.00;60.20;;;;;;4968198;28;20053;-52
2023/06/28 12:32:46;;;;;;;3.30;1.48;;;28.10;62.90;;;;;;4970992;28;20058;-51
2023/06/28 12:35:26;;;;;;;4.00;1.75;;;27.70;61.50;;;;;;4987511;28;20045;-51
2023/06/28 12:38:01;;;;;;;2.83;1.60;;;27.80;62.20;;;;;;4987105;28;20113;-51
2023/06/28 12:40:29;;;;;;;5.47;1.90;;;27.90;58.90;;;;;;5041867;28;20569;-50